createdAt,value
2023-04-19T00:01:08.471Z,102384.66
2023-04-19T00:03:12.982Z,102389.13
2023-04-19T00:05:18.967Z,102391.81
2023-04-19T00:07:24.746Z,102392.72
2023-04-19T00:09:28.715Z,102394.56
2023-04-19T00:11:32.873Z,102392.84
2023-04-19T00:13:37.127Z,102390.34
2023-04-19T00:15:41.273Z,102387.75
2023-04-19T00:17:45.816Z,102393.13
2023-04-19T00:19:50.190Z,102402.00
2023-04-19T00:21:54.354Z,102388.00
2023-04-19T00:23:59.941Z,102397.72
2023-04-19T00:26:05.183Z,102394.22
2023-04-19T00:28:09.201Z,102384.66
2023-04-19T00:30:14.528Z,102387.34
2023-04-19T00:32:18.834Z,102386.56
2023-04-19T00:34:22.851Z,102389.22
2023-04-19T00:36:27.521Z,102384.94
2023-04-19T00:38:32.019Z,102381.44
2023-04-19T00:40:38.232Z,102383.28
2023-04-19T00:42:42.724Z,102378.91
2023-04-19T00:44:48.868Z,102371.94
2023-04-19T00:46:53.426Z,102369.34
2023-04-19T00:48:57.820Z,102379.13
2023-04-19T00:51:02.171Z,102366.88
2023-04-19T00:53:06.633Z,102359.00
2023-04-19T00:55:11.457Z,102364.38
2023-04-19T00:57:18.282Z,102361.72
2023-04-19T00:59:23.119Z,102364.44
2023-04-19T01:01:27.553Z,102367.13
2023-04-19T01:03:32.073Z,102365.38
2023-04-19T01:05:36.388Z,102372.47
2023-04-19T01:07:40.575Z,102375.16
2023-04-19T01:09:46.034Z,102377.84
2023-04-19T01:11:50.174Z,102373.50
2023-04-19T01:13:58.642Z,102380.56
2023-04-19T01:16:03.291Z,102371.72
2023-04-19T01:18:07.931Z,102373.56
2023-04-19T01:20:13.827Z,102379.75
2023-04-19T01:22:21.879Z,102370.03
2023-04-19T01:24:25.872Z,102382.47
2023-04-19T01:26:29.754Z,102372.81
2023-04-19T01:28:34.208Z,102378.25
2023-04-19T01:30:38.895Z,102379.19
2023-04-19T01:32:43.025Z,102382.72
2023-04-19T01:34:47.348Z,102393.28
2023-04-19T01:36:51.752Z,102381.88
2023-04-19T01:38:57.611Z,102380.19
2023-04-19T01:41:01.892Z,102367.88
2023-04-19T01:43:05.814Z,102376.66
2023-04-19T01:45:11.948Z,102367.09
2023-04-19T01:47:16.431Z,102364.47
2023-04-19T01:49:20.548Z,102355.69
2023-04-19T01:51:26.613Z,102368.09
2023-04-19T01:53:31.639Z,102361.09
2023-04-19T01:55:37.020Z,102359.38
2023-04-19T01:57:41.149Z,102367.34
2023-04-19T01:59:44.986Z,102349.81
2023-04-19T02:01:49.935Z,102351.56
2023-04-19T02:03:55.272Z,102358.66
2023-04-19T02:05:59.842Z,102351.66
2023-04-19T02:08:04.376Z,102340.28
2023-04-19T02:10:11.833Z,102353.47
2023-04-19T02:12:17.795Z,102348.28
2023-04-19T02:14:22.052Z,102339.50
2023-04-19T02:16:26.072Z,102345.72
2023-04-19T02:18:30.980Z,102332.63
2023-04-19T02:20:35.283Z,102326.50
2023-04-19T02:22:39.214Z,102323.88
2023-04-19T02:24:43.366Z,102330.09
2023-04-19T02:26:47.436Z,102322.22
2023-04-19T02:28:55.223Z,102323.13
2023-04-19T02:30:59.918Z,102313.50
2023-04-19T02:33:05.101Z,102322.31
2023-04-19T02:35:11.729Z,102312.72
2023-04-19T02:37:16.038Z,102315.41
2023-04-19T02:39:20.262Z,102322.50
2023-04-19T02:41:24.572Z,102322.50
2023-04-19T02:43:28.644Z,102327.88
2023-04-19T02:45:34.357Z,102314.69
2023-04-19T02:47:38.376Z,102312.09
2023-04-19T02:49:43.285Z,102299.81
2023-04-19T02:51:47.968Z,102298.13
2023-04-19T02:53:52.037Z,102297.31
2023-04-19T02:55:56.734Z,102299.09
2023-04-19T02:58:00.754Z,102277.16
2023-04-19T03:00:05.889Z,102282.44
2023-04-19T03:02:12.374Z,102275.44
2023-04-19T03:04:17.480Z,102285.16
2023-04-19T03:06:21.976Z,102285.16
2023-04-19T03:08:26.282Z,102282.53
2023-04-19T03:10:30.267Z,102290.44
2023-04-19T03:12:34.504Z,102286.91
2023-04-19T03:14:38.607Z,102284.28
2023-04-19T03:16:44.507Z,102279.06
2023-04-19T03:18:50.058Z,102275.53
2023-04-19T03:20:57.866Z,102269.44
2023-04-19T03:23:05.347Z,102266.81
2023-04-19T03:25:12.753Z,102280.00
2023-04-19T03:27:19.191Z,102280.88
2023-04-19T03:29:28.235Z,102287.00
2023-04-19T03:31:42.585Z,102286.16
2023-04-19T03:33:51.139Z,102269.50
2023-04-19T03:35:57.390Z,102275.72
2023-04-19T03:38:02.118Z,102289.78
2023-04-19T03:40:06.782Z,102290.59
2023-04-19T03:42:11.536Z,102293.22
2023-04-19T03:44:27.083Z,102289.69
2023-04-19T03:46:32.040Z,102283.53
2023-04-19T03:48:37.386Z,102281.75
2023-04-19T03:50:43.181Z,102270.25
2023-04-19T03:52:51.621Z,102263.19
2023-04-19T03:54:55.669Z,102270.25
2023-04-19T03:57:10.841Z,102273.72
2023-04-19T03:59:16.904Z,102276.38
2023-04-19T04:01:20.984Z,102274.56
2023-04-19T04:03:26.241Z,102275.47
2023-04-19T04:05:31.001Z,102280.69
2023-04-19T04:07:36.394Z,102280.75
2023-04-19T04:09:40.618Z,102276.31
2023-04-19T04:11:44.871Z,102281.59
2023-04-19T04:13:50.510Z,102278.91
2023-04-19T04:15:58.796Z,102269.16
2023-04-19T04:18:02.554Z,102270.09
2023-04-19T04:20:07.896Z,102271.91
2023-04-19T04:22:13.172Z,102279.75
2023-04-19T04:24:20.430Z,102278.91
2023-04-19T04:27:00.988Z,102284.09
2023-04-19T04:29:07.397Z,102289.34
2023-04-19T04:31:13.153Z,102283.19
2023-04-19T04:33:18.210Z,102296.28
2023-04-19T04:35:21.827Z,102305.03
2023-04-19T04:37:34.662Z,102300.56
2023-04-19T04:39:40.341Z,102306.69
2023-04-19T04:41:46.493Z,102294.31
2023-04-19T04:44:04.695Z,102302.22
2023-04-19T04:46:16.106Z,102293.41
2023-04-19T04:48:20.330Z,102299.56
2023-04-19T04:50:24.553Z,102292.50
2023-04-19T04:52:29.082Z,102282.00
2023-04-19T04:54:57.733Z,102291.75
2023-04-19T04:57:07.657Z,102278.63
2023-04-19T04:59:11.906Z,102274.19
2023-04-19T05:01:21.802Z,102272.44
2023-04-19T05:03:27.247Z,102275.09
2023-04-19T05:05:36.903Z,102257.56
2023-04-19T05:07:41.397Z,102258.41
2023-04-19T05:09:45.822Z,102268.03
2023-04-19T05:11:56.025Z,102270.66
2023-04-19T05:14:01.260Z,102275.09
2023-04-19T05:16:05.721Z,102278.56
2023-04-19T05:18:10.140Z,102287.38
2023-04-19T05:20:15.040Z,102295.16
2023-04-19T05:22:20.255Z,102296.09
2023-04-19T05:24:24.722Z,102298.72
2023-04-19T05:26:29.088Z,102294.38
2023-04-19T05:28:34.873Z,102296.13
2023-04-19T05:30:44.521Z,102297.03
2023-04-19T05:32:49.374Z,102288.22
2023-04-19T05:34:55.275Z,102294.38
2023-04-19T05:37:00.280Z,102294.38
2023-04-19T05:39:04.219Z,102300.53
2023-04-19T05:41:08.450Z,102301.41
2023-04-19T05:43:12.855Z,102302.25
2023-04-19T05:45:19.625Z,102302.25
2023-04-19T05:47:23.902Z,102309.28
2023-04-19T05:49:45.469Z,102298.72
2023-04-19T05:51:57.547Z,102305.78
2023-04-19T05:54:24.532Z,102305.78
2023-04-19T05:56:28.952Z,102304.91
2023-04-19T05:58:33.482Z,102302.25
2023-04-19T06:00:39.488Z,102297.84
2023-04-19T06:02:48.648Z,102303.06
2023-04-19T06:04:53.615Z,102298.63
2023-04-19T06:06:57.796Z,102296.84
2023-04-19T06:09:02.013Z,102298.63
2023-04-19T06:11:15.697Z,102299.44
2023-04-19T06:13:28.602Z,102300.22
2023-04-19T06:15:33.334Z,102282.66
2023-04-19T06:17:38.389Z,102294.16
2023-04-19T06:19:42.749Z,102304.66
2023-04-19T06:21:47.872Z,102289.72
2023-04-19T06:23:51.658Z,102298.50
2023-04-19T06:25:55.959Z,102297.59
2023-04-19T06:27:59.972Z,102309.84
2023-04-19T06:30:03.869Z,102309.69
2023-04-19T06:32:07.671Z,102298.34
2023-04-19T06:34:13.108Z,102306.16
2023-04-19T06:36:17.411Z,102309.69
2023-04-19T06:38:21.179Z,102296.44
2023-04-19T06:40:25.166Z,102292.97
2023-04-19T06:42:29.587Z,102286.78
2023-04-19T06:44:34.313Z,102308.78
2023-04-19T06:46:38.589Z,102297.34
2023-04-19T06:48:43.567Z,102300.03
2023-04-19T06:50:49.669Z,102301.72
2023-04-19T06:52:54.239Z,102297.16
2023-04-19T06:54:59.018Z,102301.66
2023-04-19T06:57:04.052Z,102293.69
2023-04-19T06:59:08.635Z,102291.88
2023-04-19T07:01:13.527Z,102296.25
2023-04-19T07:03:18.254Z,102306.75
2023-04-19T07:05:23.082Z,102303.06
2023-04-19T07:07:29.207Z,102296.84
2023-04-19T07:09:33.574Z,102304.75
2023-04-19T07:11:38.053Z,102310.91
2023-04-19T07:13:42.894Z,102310.97
2023-04-19T07:15:47.517Z,102318.94
2023-04-19T07:17:52.467Z,102318.91
2023-04-19T07:19:56.838Z,102317.16
2023-04-19T07:22:01.357Z,102317.06
2023-04-19T07:24:08.068Z,102318.78
2023-04-19T07:26:12.401Z,102318.00
2023-04-19T07:28:17.219Z,102303.91
2023-04-19T07:30:21.621Z,102304.03
2023-04-19T07:32:25.663Z,102298.72
2023-04-19T07:34:30.192Z,102303.13
2023-04-19T07:36:35.755Z,102301.41
2023-04-19T07:38:40.064Z,102298.63
2023-04-19T07:40:45.302Z,102309.28
2023-04-19T07:42:49.471Z,102296.88
2023-04-19T07:44:53.265Z,102304.81
2023-04-19T07:46:57.399Z,102310.91
2023-04-19T07:49:01.727Z,102309.97
2023-04-19T07:51:11.289Z,102315.00
2023-04-19T07:53:16.848Z,102303.44
2023-04-19T07:55:21.156Z,102311.47
2023-04-19T07:57:27.066Z,102307.81
2023-04-19T07:59:33.524Z,102305.00
2023-04-19T08:01:38.104Z,102313.72
2023-04-19T08:03:43.143Z,102305.75
2023-04-19T08:05:47.153Z,102310.19
2023-04-19T08:07:53.776Z,102314.69
2023-04-19T08:09:58.009Z,102315.44
2023-04-19T08:12:02.927Z,102308.47
2023-04-19T08:14:18.555Z,102319.91
2023-04-19T08:18:38.133Z,102323.16
2023-04-19T08:20:43.202Z,102314.19
2023-04-19T08:22:46.904Z,102323.88
2023-04-19T08:24:51.736Z,102315.09
2023-04-19T08:26:58.801Z,102319.59
2023-04-19T08:29:03.994Z,102315.22
2023-04-19T08:31:09.452Z,102325.66
2023-04-19T08:33:13.443Z,102326.56
2023-04-19T08:35:17.370Z,102329.09
2023-04-19T08:37:21.958Z,102318.28
2023-04-19T08:39:33.030Z,102319.91
2023-04-19T08:41:38.819Z,102319.72
2023-04-19T08:43:45.613Z,102328.66
2023-04-19T08:45:50.988Z,102310.22
2023-04-19T08:48:01.787Z,102316.50
2023-04-19T08:50:24.146Z,102308.53
2023-04-19T08:52:47.961Z,102307.66
2023-04-19T08:55:00.209Z,102308.66
2023-04-19T08:57:04.894Z,102306.03
2023-04-19T08:59:17.940Z,102319.91
2023-04-19T09:01:34.998Z,102313.50
2023-04-19T09:03:58.353Z,102326.50
2023-04-19T09:06:05.872Z,102324.53
2023-04-19T09:08:30.778Z,102320.91
2023-04-19T09:10:34.800Z,102327.13
2023-04-19T09:12:40.143Z,102324.38
2023-04-19T09:15:00.312Z,102320.00
2023-04-19T09:17:22.955Z,102327.13
2023-04-19T09:19:28.924Z,102312.78
2023-04-19T09:21:34.117Z,102320.88
2023-04-19T09:23:47.980Z,102313.78
2023-04-19T09:26:19.169Z,102314.41
2023-04-19T09:28:21.106Z,102317.00
2023-04-19T09:30:32.408Z,102306.59
2023-04-19T09:32:49.667Z,102314.69
2023-04-19T09:34:57.240Z,102318.06
2023-04-19T09:37:27.617Z,102317.09
2023-04-19T09:39:37.900Z,102308.31
2023-04-19T09:41:52.313Z,102311.75
2023-04-19T09:44:13.031Z,102309.13
2023-04-19T09:46:34.425Z,102308.28
2023-04-19T09:48:38.898Z,102317.09
2023-04-19T09:51:02.392Z,102306.53
2023-04-19T09:53:12.238Z,102312.59
2023-04-19T09:55:26.813Z,102330.25
2023-04-19T09:57:33.552Z,102312.56
2023-04-19T09:59:37.482Z,102316.06
2023-04-19T10:01:44.151Z,102311.75
2023-04-19T10:03:52.393Z,102314.38
2023-04-19T10:06:06.775Z,102306.38
2023-04-19T10:08:14.485Z,102299.44
2023-04-19T10:10:21.517Z,102310.13
2023-04-19T10:12:46.302Z,102306.53
2023-04-19T10:14:52.926Z,102313.59
2023-04-19T10:16:58.499Z,102309.09
2023-04-19T10:19:05.126Z,102306.16
2023-04-19T10:21:12.481Z,102304.19
2023-04-19T10:23:16.500Z,102320.00
2023-04-19T10:25:21.841Z,102316.44
2023-04-19T10:27:27.716Z,102307.59
2023-04-19T10:29:59.008Z,102310.31
2023-04-19T10:32:06.583Z,102312.28
2023-04-19T10:34:10.550Z,102315.72
2023-04-19T10:36:18.267Z,102313.91
2023-04-19T10:38:22.149Z,102310.25
2023-04-19T10:40:56.785Z,102319.09
2023-04-19T10:43:17.255Z,102315.63
2023-04-19T10:45:36.612Z,102318.28
2023-04-19T10:47:43.798Z,102321.53
2023-04-19T10:49:47.995Z,102317.03
2023-04-19T10:51:55.170Z,102308.44
2023-04-19T10:54:00.562Z,102308.50
2023-04-19T10:56:04.814Z,102313.00
2023-04-19T10:58:09.291Z,102302.19
2023-04-19T11:00:22.787Z,102308.31
2023-04-19T11:02:31.388Z,102303.94
2023-04-19T11:05:14.227Z,102311.88
2023-04-19T11:07:21.540Z,102309.41
2023-04-19T11:09:26.579Z,102311.81
2023-04-19T11:11:30.840Z,102319.69
2023-04-19T11:13:37.949Z,102321.72
2023-04-19T11:15:45.056Z,102323.75
2023-04-19T11:18:00.837Z,102320.50
2023-04-19T11:20:11.660Z,102317.84
2023-04-19T11:22:15.624Z,102316.97
2023-04-19T11:24:21.438Z,102316.06
2023-04-19T11:26:25.601Z,102315.06
2023-04-19T11:28:29.733Z,102304.28
2023-04-19T11:30:34.238Z,102309.41
2023-04-19T11:32:39.387Z,102304.28
2023-04-19T11:34:43.655Z,102311.38
2023-04-19T11:36:52.130Z,102307.78
2023-04-19T11:38:56.728Z,102305.91
2023-04-19T11:41:02.886Z,102304.66
2023-04-19T11:43:07.417Z,102307.19
2023-04-19T11:45:25.837Z,102301.78
2023-04-19T11:47:34.298Z,102306.34
2023-04-19T11:49:37.838Z,102311.66
2023-04-19T11:51:44.991Z,102300.03
2023-04-19T11:53:49.300Z,102310.69
2023-04-19T11:55:54.572Z,102306.09
2023-04-19T11:58:00.540Z,102314.16
2023-04-19T12:00:11.208Z,102307.31
2023-04-19T12:02:20.133Z,102317.00
2023-04-19T12:04:24.643Z,102316.25
2023-04-19T12:06:32.334Z,102308.31
2023-04-19T12:08:37.865Z,102308.25
2023-04-19T12:10:56.751Z,102306.16
2023-04-19T12:13:02.200Z,102303.34
2023-04-19T12:15:07.019Z,102302.97
2023-04-19T12:17:16.337Z,102299.38
2023-04-19T12:19:20.993Z,102293.81
2023-04-19T12:21:28.971Z,102293.59
2023-04-19T12:23:33.157Z,102290.88
2023-04-19T12:25:37.390Z,102281.13
2023-04-19T12:27:42.726Z,102290.78
2023-04-19T12:29:48.070Z,102282.69
2023-04-19T12:31:51.941Z,102287.91
2023-04-19T12:33:56.098Z,102276.81
2023-04-19T12:36:00.219Z,102273.56
2023-04-19T12:38:04.302Z,102280.63
2023-04-19T12:40:09.750Z,102268.28
2023-04-19T12:42:13.736Z,102278.41
2023-04-19T12:44:17.719Z,102273.31
2023-04-19T12:46:23.081Z,102276.41
2023-04-19T12:48:27.868Z,102272.03
2023-04-19T12:50:31.749Z,102276.00
2023-04-19T12:52:36.542Z,102262.28
2023-04-19T12:54:40.363Z,102256.97
2023-04-19T12:56:44.366Z,102261.41
2023-04-19T12:58:48.318Z,102268.66
2023-04-19T13:00:53.078Z,102273.47
2023-04-19T13:02:59.108Z,102274.34
2023-04-19T13:05:03.169Z,102271.63
2023-04-19T13:07:07.195Z,102273.38
2023-04-19T13:09:15.048Z,102268.09
2023-04-19T13:11:23.601Z,102256.09
2023-04-19T13:13:27.884Z,102259.78
2023-04-19T13:15:31.851Z,102247.53
2023-04-19T13:17:37.984Z,102258.09
2023-04-19T13:19:43.751Z,102252.94
2023-04-19T13:21:47.583Z,102249.00
2023-04-19T13:23:52.295Z,102239.34
2023-04-19T13:25:56.117Z,102243.88
2023-04-19T13:27:59.737Z,102237.06
2023-04-19T13:30:03.746Z,102243.09
2023-04-19T13:32:12.495Z,102247.22
2023-04-19T13:34:16.617Z,102249.06
2023-04-19T13:36:22.907Z,102242.16
2023-04-19T13:38:27.294Z,102246.31
2023-04-19T13:40:35.730Z,102230.66
2023-04-19T13:42:39.711Z,102237.25
2023-04-19T13:44:44.930Z,102233.66
2023-04-19T13:46:49.841Z,102236.22
2023-04-19T13:48:54.460Z,102236.88
2023-04-19T13:50:59.618Z,102228.38
2023-04-19T13:53:04.996Z,102225.69
2023-04-19T13:55:10.278Z,102229.94
2023-04-19T13:57:14.539Z,102223.69
2023-04-19T13:59:18.725Z,102213.00
2023-04-19T14:01:23.537Z,102220.25
2023-04-19T14:03:28.457Z,102211.50
2023-04-19T14:05:34.112Z,102216.13
2023-04-19T14:07:40.750Z,102220.38
2023-04-19T14:09:46.668Z,102218.88
2023-04-19T14:11:51.073Z,102217.97
2023-04-19T14:13:55.718Z,102225.22
2023-04-19T14:16:00.633Z,102220.13
2023-04-19T14:18:05.680Z,102211.97
2023-04-19T14:20:10.464Z,102211.13
2023-04-19T14:22:14.787Z,102208.56
2023-04-19T14:24:19.219Z,102198.59
2023-04-19T14:26:26.979Z,102203.81
2023-04-19T14:28:32.141Z,102202.50
2023-04-19T14:30:36.394Z,102200.91
2023-04-19T14:32:40.654Z,102197.34
2023-04-19T14:34:44.898Z,102189.38
2023-04-19T14:36:51.541Z,102196.28
2023-04-19T14:38:55.518Z,102190.31
2023-04-19T14:40:59.826Z,102195.38
2023-04-19T14:43:05.873Z,102190.94
2023-04-19T14:45:11.093Z,102188.72
2023-04-19T14:47:16.265Z,102191.31
2023-04-19T14:49:20.649Z,102174.91
2023-04-19T14:51:25.222Z,102179.44
2023-04-19T14:53:29.365Z,102185.72
2023-04-19T14:55:33.778Z,102187.00
2023-04-19T14:57:38.132Z,102184.28
2023-04-19T14:59:44.270Z,102186.00
2023-04-19T15:01:48.457Z,102178.69
2023-04-19T15:03:53.325Z,102178.69
2023-04-19T15:05:58.066Z,102178.00
2023-04-19T15:08:02.081Z,102176.00
2023-04-19T15:10:07.034Z,102175.53
2023-04-19T15:12:10.644Z,102169.13
2023-04-19T15:14:15.145Z,102171.03
2023-04-19T15:16:20.830Z,102168.78
2023-04-19T15:18:24.678Z,102172.47
2023-04-19T15:20:29.735Z,102172.41
2023-04-19T15:22:35.235Z,102163.63
2023-04-19T15:24:39.889Z,102163.75
2023-04-19T15:26:45.118Z,102171.56
2023-04-19T15:28:49.575Z,102169.69
2023-04-19T15:31:00.803Z,102169.59
2023-04-19T15:33:06.304Z,102161.50
2023-04-19T15:35:11.379Z,102167.06
2023-04-19T15:37:15.222Z,102170.75
2023-04-19T15:39:19.389Z,102161.94
2023-04-19T15:41:23.435Z,102165.59
2023-04-19T15:43:27.492Z,102166.56
2023-04-19T15:45:31.830Z,102171.88
2023-04-19T15:47:35.993Z,102168.91
2023-04-19T15:49:42.215Z,102170.38
2023-04-19T15:51:46.528Z,102162.19
2023-04-19T15:53:50.831Z,102161.25
2023-04-19T15:55:56.211Z,102160.53
2023-04-19T15:58:01.211Z,102159.63
2023-04-19T16:00:09.516Z,102148.94
2023-04-19T16:02:16.164Z,102152.56
2023-04-19T16:04:20.650Z,102148.13
2023-04-19T16:06:27.606Z,102150.00
2023-04-19T16:08:31.917Z,102153.31
2023-04-19T16:10:36.688Z,102150.59
2023-04-19T16:12:40.996Z,102151.19
2023-04-19T16:14:44.972Z,102151.13
2023-04-19T16:16:49.477Z,102143.91
2023-04-19T16:18:53.411Z,102149.94
2023-04-19T16:20:57.618Z,102152.53
2023-04-19T16:23:03.686Z,102147.38
2023-04-19T16:25:10.314Z,102149.09
2023-04-19T16:27:14.500Z,102131.31
2023-04-19T16:29:19.054Z,102140.94
2023-04-19T16:31:23.616Z,102146.31
2023-04-19T16:33:27.850Z,102134.13
2023-04-19T16:35:31.878Z,102142.22
2023-04-19T16:37:37.152Z,102137.94
2023-04-19T16:39:43.130Z,102138.03
2023-04-19T16:41:47.537Z,102143.28
2023-04-19T16:43:52.688Z,102139.72
2023-04-19T16:46:00.418Z,102142.50
2023-04-19T16:48:04.724Z,102140.69
2023-04-19T16:50:09.380Z,102142.44
2023-04-19T16:52:13.511Z,102135.53
2023-04-19T16:54:17.647Z,102136.81
2023-04-19T16:56:23.255Z,102133.41
2023-04-19T16:58:27.278Z,102136.06
2023-04-19T17:00:31.592Z,102133.41
2023-04-19T17:02:35.792Z,102130.03
2023-04-19T17:04:40.561Z,102131.75
2023-04-19T17:06:45.137Z,102133.47
2023-04-19T17:08:49.274Z,102129.16
2023-04-19T17:10:53.194Z,102129.25
2023-04-19T17:12:58.794Z,102123.72
2023-04-19T17:15:03.023Z,102122.75
2023-04-19T17:17:07.052Z,102118.97
2023-04-19T17:19:10.822Z,102118.97
2023-04-19T17:21:16.646Z,102124.25
2023-04-19T17:23:20.677Z,102117.13
2023-04-19T17:25:24.584Z,102113.56
2023-04-19T17:27:28.900Z,102122.22
2023-04-19T17:29:34.356Z,102111.75
2023-04-19T17:31:39.429Z,102120.69
2023-04-19T17:33:43.679Z,102112.06
2023-04-19T17:35:47.299Z,102107.59
2023-04-19T17:37:51.569Z,102098.69
2023-04-19T17:39:55.588Z,102101.28
2023-04-19T17:41:59.556Z,102093.28
2023-04-19T17:44:03.433Z,102095.13
2023-04-19T17:46:08.693Z,102088.97
2023-04-19T17:48:12.914Z,102084.59
2023-04-19T17:50:17.566Z,102078.38
2023-04-19T17:52:21.401Z,102081.78
2023-04-19T17:54:25.717Z,102080.88
2023-04-19T17:56:30.627Z,102082.53
2023-04-19T17:58:36.413Z,102074.44
2023-04-19T18:00:41.331Z,102078.75
2023-04-19T18:02:47.884Z,102075.97
2023-04-19T18:04:53.181Z,102068.84
2023-04-19T18:06:57.387Z,102068.91
2023-04-19T18:09:01.495Z,102065.38
2023-04-19T18:11:06.038Z,102066.38
2023-04-19T18:13:10.925Z,102069.94
2023-04-19T18:15:15.548Z,102066.56
2023-04-19T18:17:20.175Z,102059.66
2023-04-19T18:19:26.544Z,102056.25
2023-04-19T18:21:31.575Z,102058.91
2023-04-19T18:23:35.785Z,102059.06
2023-04-19T18:25:40.772Z,102056.50
2023-04-19T18:27:46.124Z,102054.78
2023-04-19T18:29:53.105Z,102054.84
2023-04-19T18:31:56.966Z,102056.72
2023-04-19T18:34:01.716Z,102060.22
2023-04-19T18:36:07.935Z,102057.63
2023-04-19T18:38:12.821Z,102062.94
2023-04-19T18:40:18.242Z,102054.13
2023-04-19T18:42:23.685Z,102049.81
2023-04-19T18:44:49.435Z,102054.31
2023-04-19T18:46:55.717Z,102058.84
2023-04-19T18:49:00.113Z,102062.41
2023-04-19T18:51:04.891Z,102046.56
2023-04-19T18:53:11.201Z,102054.66
2023-04-19T18:55:16.449Z,102056.44
2023-04-19T18:57:23.406Z,102056.28
2023-04-19T18:59:30.883Z,102061.72
2023-04-19T19:01:37.087Z,102054.59
2023-04-19T19:04:07.753Z,102055.59
2023-04-19T19:06:06.966Z,102055.66
2023-04-19T19:08:12.953Z,102056.50
2023-04-19T19:10:20.860Z,102053.06
2023-04-19T19:12:27.214Z,102066.34
2023-04-19T19:14:35.899Z,102059.38
2023-04-19T19:16:51.275Z,102052.34
2023-04-19T19:18:58.086Z,102063.00
2023-04-19T19:21:03.582Z,102070.06
2023-04-19T19:23:08.800Z,102065.72
2023-04-19T19:25:16.409Z,102072.78
2023-04-19T19:27:21.186Z,102066.63
2023-04-19T19:29:26.462Z,102063.91
2023-04-19T19:31:31.774Z,102062.94
2023-04-19T19:33:39.953Z,102058.41
2023-04-19T19:38:11.607Z,102070.81
2023-04-19T19:40:20.919Z,102058.41
2023-04-19T19:42:28.315Z,102064.53
2023-04-19T19:44:33.195Z,102052.13
2023-04-19T19:46:38.605Z,102059.09
2023-04-19T19:48:44.644Z,102054.78
2023-04-19T19:51:10.808Z,102049.47
2023-04-19T19:53:18.375Z,102050.28
2023-04-19T19:55:26.674Z,102052.06
2023-04-19T19:59:40.530Z,102053.78
2023-04-19T20:01:44.978Z,102057.34
2023-04-19T20:03:50.846Z,102065.25
2023-04-19T20:05:57.470Z,102068.91
2023-04-19T20:08:10.433Z,102061.94
2023-04-19T20:10:15.926Z,102077.09
2023-04-19T20:12:21.889Z,102076.25
2023-04-19T20:14:27.140Z,102085.09
2023-04-19T20:16:32.557Z,102081.66
2023-04-19T20:18:38.179Z,102082.53
2023-04-19T20:20:43.930Z,102081.72
2023-04-19T20:22:48.951Z,102087.97
2023-04-19T20:24:53.290Z,102086.22
2023-04-19T20:26:57.642Z,102094.25
2023-04-19T20:29:03.371Z,102091.59
2023-04-19T20:31:08.265Z,102088.94
2023-04-19T20:33:14.240Z,102090.72
2023-04-19T20:35:18.467Z,102095.22
2023-04-19T20:37:24.611Z,102098.81
2023-04-19T20:39:29.532Z,102098.72
2023-04-19T20:41:35.058Z,102103.25
2023-04-19T20:43:39.759Z,102100.59
2023-04-19T20:45:45.420Z,102101.44
2023-04-19T20:47:49.154Z,102102.44
2023-04-19T20:49:54.079Z,102090.06
2023-04-19T20:51:58.567Z,102095.41
2023-04-19T20:54:07.548Z,102101.66
2023-04-19T20:56:13.726Z,102105.22
2023-04-19T20:58:19.952Z,102099.97
2023-04-19T21:00:25.238Z,102100.78
2023-04-19T21:02:31.734Z,102102.63
2023-04-19T21:04:36.915Z,102108.06
2023-04-19T21:06:40.924Z,102122.22
2023-04-19T21:08:46.389Z,102110.72
2023-04-19T21:10:52.443Z,102115.25
2023-04-19T21:12:57.680Z,102115.25
2023-04-19T21:15:05.221Z,102120.56
2023-04-19T21:17:10.234Z,102125.91
2023-04-19T21:19:15.852Z,102122.38
2023-04-19T21:21:20.784Z,102122.44
2023-04-19T21:23:25.516Z,102129.63
2023-04-19T21:25:29.983Z,102138.47
2023-04-19T21:27:35.153Z,102123.56
2023-04-19T21:29:40.035Z,102121.84
2023-04-19T21:31:44.379Z,102130.72
2023-04-19T21:33:49.173Z,102121.91
2023-04-19T21:35:55.366Z,102125.47
2023-04-19T21:38:00.130Z,102131.72
2023-04-19T21:40:04.457Z,102130.81
2023-04-19T21:42:08.886Z,102123.75
2023-04-19T21:44:13.597Z,102128.09
2023-04-19T21:46:18.298Z,102125.59
2023-04-19T21:48:22.988Z,102137.91
2023-04-19T21:50:27.573Z,102131.81
2023-04-19T21:52:33.380Z,102127.53
2023-04-19T21:54:37.790Z,102125.72
2023-04-19T21:56:41.898Z,102116.06
2023-04-19T21:58:46.637Z,102120.56
2023-04-19T22:00:55.500Z,102122.31
2023-04-19T22:03:00.093Z,102125.91
2023-04-19T22:05:04.572Z,102131.22
2023-04-19T22:07:11.664Z,102140.91
2023-04-19T22:09:17.574Z,102137.34
2023-04-19T22:11:22.027Z,102128.56
2023-04-19T22:13:26.440Z,102137.34
2023-04-19T22:15:31.838Z,102133.78
2023-04-19T22:17:37.318Z,102139.94
2023-04-19T22:19:42.644Z,102139.94
2023-04-19T22:21:47.811Z,102134.66
2023-04-19T22:23:52.790Z,102139.09
2023-04-19T22:25:58.476Z,102136.44
2023-04-19T22:28:03.582Z,102132.06
2023-04-19T22:30:10.196Z,102121.59
2023-04-19T22:32:15.060Z,102125.22
2023-04-19T22:34:19.222Z,102133.25
2023-04-19T22:36:23.638Z,102128.00
2023-04-19T22:38:28.432Z,102130.69
2023-04-19T22:40:32.725Z,102136.94
2023-04-19T22:42:39.336Z,102141.41
2023-04-19T22:44:43.667Z,102128.34
2023-04-19T22:46:48.994Z,102121.34
2023-04-19T22:48:53.491Z,102136.38
2023-04-19T22:50:58.998Z,102131.16
2023-04-19T22:53:03.813Z,102129.56
2023-04-19T22:55:09.096Z,102130.53
2023-04-19T22:57:14.287Z,102134.22
2023-04-19T22:59:21.304Z,102143.19
2023-04-19T23:01:25.971Z,102133.63
2023-04-19T23:03:30.544Z,102147.06
2023-04-19T23:05:35.567Z,102155.13
2023-04-19T23:07:40.516Z,102147.25
2023-04-19T23:09:45.224Z,102146.53
2023-04-19T23:11:50.193Z,102139.56
2023-04-19T23:13:55.204Z,102144.09
2023-04-19T23:16:01.473Z,102149.38
2023-04-19T23:18:07.259Z,102144.22
2023-04-19T23:20:13.049Z,102142.56
2023-04-19T23:22:18.031Z,102140.88
2023-04-19T23:24:22.280Z,102144.56
2023-04-19T23:26:26.988Z,102141.97
2023-04-19T23:28:31.330Z,102141.22
2023-04-19T23:30:36.339Z,102140.34
2023-04-19T23:32:42.232Z,102124.56
2023-04-19T23:34:46.771Z,102134.31
2023-04-19T23:36:51.372Z,102121.16
2023-04-19T23:39:01.719Z,102118.63
2023-04-19T23:41:06.515Z,102122.09
2023-04-19T23:43:11.401Z,102123.00
2023-04-19T23:45:16.484Z,102124.81
2023-04-19T23:47:20.664Z,102131.97
2023-04-19T23:49:26.745Z,102124.09
2023-04-19T23:51:31.676Z,102118.00
2023-04-19T23:53:36.200Z,102117.22
2023-04-19T23:55:40.921Z,102111.09
2023-04-19T23:57:45.954Z,102118.19
2023-04-19T23:59:50.806Z,102104.03
